createdAt,value
2018-04-14T00:00:46.405Z,1006.40
2018-04-14T00:01:46.409Z,1006.39
2018-04-14T00:02:46.409Z,1006.44
2018-04-14T00:03:46.404Z,1006.40
2018-04-14T00:04:46.414Z,1006.41
2018-04-14T00:05:46.408Z,1006.38
2018-04-14T00:06:46.403Z,1006.38
2018-04-14T00:07:46.400Z,1006.36
2018-04-14T00:08:46.396Z,1006.39
2018-04-14T00:09:46.394Z,1006.39
2018-04-14T00:10:46.397Z,1006.41
2018-04-14T00:11:46.396Z,1006.39
2018-04-14T00:12:46.388Z,1006.40
2018-04-14T00:13:46.390Z,1006.41
2018-04-14T00:14:46.388Z,1006.43
2018-04-14T00:15:46.388Z,1006.43
2018-04-14T00:16:46.392Z,1006.43
2018-04-14T00:17:46.389Z,1006.45
2018-04-14T00:18:46.387Z,1006.43
2018-04-14T00:19:46.382Z,1006.45
2018-04-14T00:20:46.381Z,1006.44
2018-04-14T00:21:46.383Z,1006.41
2018-04-14T00:22:46.376Z,1006.42
2018-04-14T00:23:46.377Z,1006.40
2018-04-14T00:24:46.373Z,1006.39
2018-04-14T00:25:46.372Z,1006.36
2018-04-14T00:26:46.371Z,1006.38
2018-04-14T00:27:46.368Z,1006.37
2018-04-14T00:28:46.366Z,1006.41
2018-04-14T00:29:46.367Z,1006.41
2018-04-14T00:30:46.365Z,1006.40
2018-04-14T00:31:46.365Z,1006.41
2018-04-14T00:32:46.360Z,1006.38
2018-04-14T00:33:46.360Z,1006.41
2018-04-14T00:34:46.354Z,1006.42
2018-04-14T00:35:46.356Z,1006.40
2018-04-14T00:36:46.355Z,1006.41
2018-04-14T00:37:46.351Z,1006.38
2018-04-14T00:38:46.349Z,1006.38
2018-04-14T00:39:46.351Z,1006.36
2018-04-14T00:40:46.350Z,1006.38
2018-04-14T00:41:46.347Z,1006.36
2018-04-14T00:42:46.344Z,1006.37
2018-04-14T00:43:46.343Z,1006.35
2018-04-14T00:44:46.344Z,1006.33
2018-04-14T00:45:46.342Z,1006.37
2018-04-14T00:46:46.335Z,1006.40
2018-04-14T00:47:46.336Z,1006.39
2018-04-14T00:48:46.365Z,1006.40
2018-04-14T00:49:46.335Z,1006.38
2018-04-14T00:50:46.333Z,1006.40
2018-04-14T00:51:46.336Z,1006.38
2018-04-14T00:52:46.332Z,1006.42
2018-04-14T00:53:46.328Z,1006.38
2018-04-14T00:54:46.330Z,1006.36
2018-04-14T00:55:46.322Z,1006.39
2018-04-14T00:56:46.324Z,1006.43
2018-04-14T00:57:46.321Z,1006.41
2018-04-14T00:58:46.322Z,1006.43
2018-04-14T00:59:46.317Z,1006.43
2018-04-14T01:00:46.317Z,1006.41
2018-04-14T01:01:46.317Z,1006.41
2018-04-14T01:02:46.315Z,1006.37
2018-04-14T01:03:46.316Z,1006.44
2018-04-14T01:04:46.313Z,1006.41
2018-04-14T01:05:46.317Z,1006.41
2018-04-14T01:06:46.314Z,1006.43
2018-04-14T01:07:46.308Z,1006.45
2018-04-14T01:08:46.305Z,1006.42
2018-04-14T01:09:46.305Z,1006.43
2018-04-14T01:10:46.303Z,1006.40
2018-04-14T01:11:46.300Z,1006.43
2018-04-14T01:12:46.302Z,1006.41
2018-04-14T01:13:46.300Z,1006.46
2018-04-14T01:14:46.299Z,1006.43
2018-04-14T01:15:46.298Z,1006.48
2018-04-14T01:16:46.295Z,1006.45
2018-04-14T01:17:46.293Z,1006.47
2018-04-14T01:18:46.305Z,1006.45
2018-04-14T01:19:46.302Z,1006.50
2018-04-14T01:20:46.289Z,1006.51
2018-04-14T01:21:46.288Z,1006.52
2018-04-14T01:22:46.349Z,1006.53
2018-04-14T01:23:46.282Z,1006.54
2018-04-14T01:24:46.282Z,1006.51
2018-04-14T01:25:46.283Z,1006.55
2018-04-14T01:26:46.286Z,1006.57
2018-04-14T01:27:46.276Z,1006.58
2018-04-14T01:28:46.278Z,1006.57
2018-04-14T01:29:46.277Z,1006.55
2018-04-14T01:30:46.276Z,1006.54
2018-04-14T01:31:46.277Z,1006.58
2018-04-14T01:32:46.272Z,1006.58
2018-04-14T01:33:46.271Z,1006.57
2018-04-14T01:34:46.273Z,1006.57
2018-04-14T01:35:46.270Z,1006.59
2018-04-14T01:36:46.264Z,1006.56
2018-04-14T01:37:46.264Z,1006.57
2018-04-14T01:38:46.263Z,1006.59
2018-04-14T01:39:46.263Z,1006.58
2018-04-14T01:40:46.258Z,1006.58
2018-04-14T01:41:46.260Z,1006.59
2018-04-14T01:42:46.256Z,1006.57
2018-04-14T01:43:46.256Z,1006.56
2018-04-14T01:44:46.256Z,1006.58
2018-04-14T01:45:46.252Z,1006.62
2018-04-14T01:46:46.250Z,1006.65
2018-04-14T01:47:46.250Z,1006.61
2018-04-14T01:48:46.242Z,1006.64
2018-04-14T01:49:46.244Z,1006.67
2018-04-14T01:50:46.243Z,1006.66
2018-04-14T01:51:46.245Z,1006.63
2018-04-14T01:52:46.234Z,1006.64
2018-04-14T01:53:46.238Z,1006.63
2018-04-14T01:54:46.238Z,1006.64
2018-04-14T01:55:46.238Z,1006.66
2018-04-14T01:56:46.240Z,1006.67
2018-04-14T01:57:46.234Z,1006.66
2018-04-14T01:58:46.231Z,1006.68
2018-04-14T01:59:46.228Z,1006.69
2018-04-14T02:00:46.228Z,1006.70
2018-04-14T02:01:46.225Z,1006.68
2018-04-14T02:02:46.225Z,1006.72
2018-04-14T02:03:46.226Z,1006.68
2018-04-14T02:04:46.225Z,1006.70
2018-04-14T02:05:46.220Z,1006.72
2018-04-14T02:06:46.218Z,1006.74
2018-04-14T02:07:46.218Z,1006.74
2018-04-14T02:08:46.218Z,1006.72
2018-04-14T02:09:46.213Z,1006.73
2018-04-14T02:10:46.211Z,1006.78
2018-04-14T02:11:46.209Z,1006.79
2018-04-14T02:12:46.211Z,1006.77
2018-04-14T02:13:46.202Z,1006.77
2018-04-14T02:14:46.203Z,1006.75
2018-04-14T02:15:46.204Z,1006.77
2018-04-14T02:16:46.200Z,1006.76
2018-04-14T02:17:46.203Z,1006.74
2018-04-14T02:18:46.197Z,1006.78
2018-04-14T02:19:46.196Z,1006.75
2018-04-14T02:20:46.200Z,1006.77
2018-04-14T02:21:46.193Z,1006.77
2018-04-14T02:22:46.190Z,1006.77
2018-04-14T02:23:46.190Z,1006.79
2018-04-14T02:24:46.187Z,1006.73
2018-04-14T02:25:46.180Z,1006.76
2018-04-14T02:26:46.184Z,1006.72
2018-04-14T02:27:46.184Z,1006.72
2018-04-14T02:28:46.180Z,1006.74
2018-04-14T02:29:46.177Z,1006.72
2018-04-14T02:30:46.184Z,1006.73
2018-04-14T02:31:46.174Z,1006.75
2018-04-14T02:32:46.172Z,1006.74
2018-04-14T02:33:46.173Z,1006.76
2018-04-14T02:34:46.169Z,1006.77
2018-04-14T02:35:46.167Z,1006.75
2018-04-14T02:36:46.171Z,1006.74
2018-04-14T02:37:46.156Z,1006.76
2018-04-14T02:38:46.163Z,1006.75
2018-04-14T02:39:46.161Z,1006.76
2018-04-14T02:40:46.157Z,1006.76
2018-04-14T02:41:46.156Z,1006.75
2018-04-14T02:42:46.158Z,1006.75
2018-04-14T02:43:46.155Z,1006.77
2018-04-14T02:44:46.154Z,1006.79
2018-04-14T02:45:46.146Z,1006.79
2018-04-14T02:46:46.147Z,1006.83
2018-04-14T02:47:46.146Z,1006.81
2018-04-14T02:48:46.143Z,1006.80
2018-04-14T02:49:46.139Z,1006.82
2018-04-14T02:50:46.138Z,1006.81
2018-04-14T02:51:46.141Z,1006.83
2018-04-14T02:52:46.134Z,1006.84
2018-04-14T02:53:46.136Z,1006.83
2018-04-14T02:54:46.128Z,1006.81
2018-04-14T02:55:46.133Z,1006.85
2018-04-14T02:56:46.131Z,1006.85
2018-04-14T02:57:46.125Z,1006.82
2018-04-14T02:58:46.125Z,1006.84
2018-04-14T02:59:46.121Z,1006.89
2018-04-14T03:00:46.124Z,1006.86
2018-04-14T03:01:46.115Z,1006.94
2018-04-14T03:02:46.116Z,1006.95
2018-04-14T03:03:46.117Z,1006.96
2018-04-14T03:04:46.111Z,1006.96
2018-04-14T03:05:46.111Z,1006.98
2018-04-14T03:06:46.112Z,1006.95
2018-04-14T03:07:46.109Z,1006.99
2018-04-14T03:08:46.115Z,1007.05
2018-04-14T03:09:46.104Z,1007.09
2018-04-14T03:10:46.100Z,1007.08
2018-04-14T03:11:46.100Z,1007.07
2018-04-14T03:12:46.104Z,1007.08
2018-04-14T03:13:46.095Z,1007.08
2018-04-14T03:14:46.093Z,1007.12
2018-04-14T03:15:46.094Z,1007.12
2018-04-14T03:16:46.090Z,1007.11
2018-04-14T03:17:46.087Z,1007.17
2018-04-14T03:18:46.085Z,1007.15
2018-04-14T03:19:46.084Z,1007.18
2018-04-14T03:20:46.080Z,1007.18
2018-04-14T03:21:46.084Z,1007.19
2018-04-14T03:22:46.078Z,1007.22
2018-04-14T03:23:46.081Z,1007.23
2018-04-14T03:24:46.075Z,1007.23
2018-04-14T03:25:46.070Z,1007.24
2018-04-14T03:26:46.071Z,1007.23
2018-04-14T03:27:46.075Z,1007.25
2018-04-14T03:28:46.061Z,1007.26
2018-04-14T03:29:46.065Z,1007.25
2018-04-14T03:30:46.063Z,1007.24
2018-04-14T03:31:46.061Z,1007.24
2018-04-14T03:32:46.058Z,1007.26
2018-04-14T03:33:46.057Z,1007.23
2018-04-14T03:34:46.056Z,1007.24
2018-04-14T03:35:46.052Z,1007.25
2018-04-14T03:36:46.052Z,1007.25
2018-04-14T03:37:46.047Z,1007.24
2018-04-14T03:38:46.046Z,1007.23
2018-04-14T03:39:46.049Z,1007.25
2018-04-14T03:40:46.043Z,1007.26
2018-04-14T03:41:46.041Z,1007.30
2018-04-14T03:42:46.040Z,1007.28
2018-04-14T03:43:46.038Z,1007.29
2018-04-14T03:44:46.035Z,1007.33
2018-04-14T03:45:46.033Z,1007.31
2018-04-14T03:46:46.032Z,1007.33
2018-04-14T03:47:46.030Z,1007.36
2018-04-14T03:48:46.025Z,1007.36
2018-04-14T03:49:46.024Z,1007.32
2018-04-14T03:50:46.025Z,1007.36
2018-04-14T03:51:46.020Z,1007.36
2018-04-14T03:52:46.016Z,1007.37
2018-04-14T03:53:46.017Z,1007.41
2018-04-14T03:54:46.014Z,1007.43
2018-04-14T03:55:46.015Z,1007.43
2018-04-14T03:56:46.017Z,1007.51
2018-04-14T03:57:46.010Z,1007.46
2018-04-14T03:58:46.007Z,1007.47
2018-04-14T03:59:46.007Z,1007.45
2018-04-14T04:00:46.001Z,1007.45
2018-04-14T04:01:46.004Z,1007.50
2018-04-14T04:02:46.000Z,1007.53
2018-04-14T04:03:46.012Z,1007.57
2018-04-14T04:04:45.992Z,1007.52
2018-04-14T04:05:45.998Z,1007.55
2018-04-14T04:06:45.992Z,1007.58
2018-04-14T04:07:45.991Z,1007.59
2018-04-14T04:08:45.993Z,1007.58
2018-04-14T04:09:45.985Z,1007.63
2018-04-14T04:10:45.984Z,1007.64
2018-04-14T04:11:45.990Z,1007.68
2018-04-14T04:12:45.980Z,1007.71
2018-04-14T04:13:45.979Z,1007.71
2018-04-14T04:14:45.977Z,1007.73
2018-04-14T04:15:45.977Z,1007.75
2018-04-14T04:16:45.971Z,1007.72
2018-04-14T04:17:45.974Z,1007.79
2018-04-14T04:18:45.974Z,1007.80
2018-04-14T04:19:45.965Z,1007.86
2018-04-14T04:20:45.964Z,1007.88
2018-04-14T04:21:45.962Z,1007.91
2018-04-14T04:22:45.960Z,1007.92
2018-04-14T04:23:45.956Z,1007.92
2018-04-14T04:24:45.953Z,1007.97
2018-04-14T04:25:45.952Z,1007.89
2018-04-14T04:26:45.953Z,1008.00
2018-04-14T04:27:45.954Z,1008.06
2018-04-14T04:28:45.946Z,1008.03
2018-04-14T04:29:45.948Z,1008.06
2018-04-14T04:30:45.943Z,1008.07
2018-04-14T04:31:45.938Z,1008.08
2018-04-14T04:32:45.939Z,1008.08
2018-04-14T04:33:45.935Z,1008.18
2018-04-14T04:34:45.936Z,1008.19
2018-04-14T04:35:45.934Z,1008.16
2018-04-14T04:36:45.929Z,1008.20
2018-04-14T04:37:45.927Z,1008.25
2018-04-14T04:38:45.932Z,1008.22
2018-04-14T04:39:45.924Z,1008.27
2018-04-14T04:40:45.921Z,1008.32
2018-04-14T04:41:45.920Z,1008.28
2018-04-14T04:42:45.924Z,1008.39
2018-04-14T04:43:45.914Z,1008.39
2018-04-14T04:44:45.914Z,1008.38
2018-04-14T04:45:45.909Z,1008.47
2018-04-14T04:46:45.907Z,1008.44
2018-04-14T04:47:45.906Z,1008.49
2018-04-14T04:48:45.981Z,1008.52
2018-04-14T04:49:45.903Z,1008.50
2018-04-14T04:50:45.905Z,1008.50
2018-04-14T04:51:45.899Z,1008.51
2018-04-14T04:52:45.894Z,1008.57
2018-04-14T04:53:45.893Z,1008.57
2018-04-14T04:54:45.889Z,1008.54
2018-04-14T04:55:45.884Z,1008.58
2018-04-14T04:56:45.887Z,1008.53
2018-04-14T04:57:45.915Z,1008.66
2018-04-14T04:58:45.877Z,1008.63
2018-04-14T04:59:45.879Z,1008.72
2018-04-14T05:00:45.876Z,1008.70
2018-04-14T05:01:45.873Z,1008.69
2018-04-14T05:02:45.872Z,1008.75
2018-04-14T05:03:45.867Z,1008.76
2018-04-14T05:04:45.863Z,1008.77
2018-04-14T05:05:45.867Z,1008.82
2018-04-14T05:06:45.863Z,1008.78
2018-04-14T05:07:45.858Z,1008.87
2018-04-14T05:08:45.854Z,1008.83
2018-04-14T05:09:45.852Z,1008.89
2018-04-14T05:10:45.850Z,1008.88
2018-04-14T05:11:45.855Z,1008.94
2018-04-14T05:12:45.839Z,1008.92
2018-04-14T05:13:45.841Z,1008.96
2018-04-14T05:14:45.841Z,1008.99
2018-04-14T05:15:45.838Z,1009.02
2018-04-14T05:16:45.832Z,1009.04
2018-04-14T05:17:45.836Z,1009.11
2018-04-14T05:18:45.838Z,1009.02
2018-04-14T05:19:45.828Z,1009.10
2018-04-14T05:20:45.825Z,1009.15
2018-04-14T05:21:45.823Z,1009.17
2018-04-14T05:22:45.821Z,1009.19
2018-04-14T05:23:45.822Z,1009.22
2018-04-14T05:24:45.815Z,1009.20
2018-04-14T05:25:45.812Z,1009.25
2018-04-14T05:26:45.811Z,1009.30
2018-04-14T05:27:45.807Z,1009.27
2018-04-14T05:28:45.806Z,1009.30
2018-04-14T05:29:45.802Z,1009.32
2018-04-14T05:30:45.800Z,1009.35
2018-04-14T05:31:45.799Z,1009.39
2018-04-14T05:32:45.794Z,1009.36
2018-04-14T05:33:45.794Z,1009.36
2018-04-14T05:34:45.805Z,1009.40
2018-04-14T05:35:45.787Z,1009.44
2018-04-14T05:36:45.784Z,1009.41
2018-04-14T05:37:45.782Z,1009.50
2018-04-14T05:38:45.781Z,1009.45
2018-04-14T05:39:45.777Z,1009.50
2018-04-14T05:40:45.775Z,1009.48
2018-04-14T05:41:45.773Z,1009.48
2018-04-14T05:42:45.821Z,1009.50
2018-04-14T05:43:45.769Z,1009.55
2018-04-14T05:44:45.765Z,1009.56
2018-04-14T05:45:45.761Z,1009.58
2018-04-14T05:46:45.761Z,1009.63
2018-04-14T05:47:45.758Z,1009.58
2018-04-14T05:48:45.754Z,1009.62
2018-04-14T05:49:45.754Z,1009.66
2018-04-14T05:50:45.752Z,1009.64
2018-04-14T05:51:45.744Z,1009.67
2018-04-14T05:52:45.743Z,1009.68
2018-04-14T05:53:45.744Z,1009.70
2018-04-14T05:54:45.739Z,1009.74
2018-04-14T05:55:45.740Z,1009.74
2018-04-14T05:56:45.736Z,1009.75
2018-04-14T05:57:45.731Z,1009.80
2018-04-14T05:58:45.732Z,1009.78
2018-04-14T05:59:45.729Z,1009.79
2018-04-14T06:00:45.732Z,1009.86
2018-04-14T06:01:45.724Z,1009.85
2018-04-14T06:02:45.724Z,1009.88
2018-04-14T06:03:45.720Z,1009.93
2018-04-14T06:04:45.728Z,1009.91
2018-04-14T06:05:45.718Z,1009.94
2018-04-14T06:06:45.713Z,1009.98
2018-04-14T06:07:45.712Z,1010.05
2018-04-14T06:08:45.710Z,1009.99
2018-04-14T06:09:45.705Z,1009.95
2018-04-14T06:10:45.706Z,1009.99
2018-04-14T06:11:45.705Z,1010.02
2018-04-14T06:12:45.696Z,1010.00
2018-04-14T06:13:45.700Z,1009.96
2018-04-14T06:14:45.696Z,1009.99
2018-04-14T06:15:45.693Z,1010.06
2018-04-14T06:16:45.686Z,1010.02
2018-04-14T06:17:45.688Z,1010.09
2018-04-14T06:18:45.687Z,1010.07
2018-04-14T06:19:45.687Z,1010.08
2018-04-14T06:20:45.682Z,1010.15
2018-04-14T06:21:45.680Z,1010.10
2018-04-14T06:22:45.677Z,1010.16
2018-04-14T06:23:45.676Z,1010.17
2018-04-14T06:24:45.673Z,1010.20
2018-04-14T06:25:45.676Z,1010.22
2018-04-14T06:26:45.671Z,1010.26
2018-04-14T06:27:45.674Z,1010.27
2018-04-14T06:28:45.663Z,1010.28
2018-04-14T06:29:45.660Z,1010.34
2018-04-14T06:30:45.668Z,1010.31
2018-04-14T06:31:45.660Z,1010.43
2018-04-14T06:32:45.656Z,1010.41
2018-04-14T06:33:45.693Z,1010.44
2018-04-14T06:34:45.650Z,1010.43
2018-04-14T06:35:45.655Z,1010.47
2018-04-14T06:36:45.647Z,1010.52
2018-04-14T06:37:45.643Z,1010.51
2018-04-14T06:38:45.645Z,1010.55
2018-04-14T06:39:45.637Z,1010.58
2018-04-14T06:40:45.636Z,1010.60
2018-04-14T06:41:45.636Z,1010.58
2018-04-14T06:42:45.639Z,1010.61
2018-04-14T06:43:45.630Z,1010.68
2018-04-14T06:44:45.629Z,1010.71
2018-04-14T06:45:45.627Z,1010.69
2018-04-14T06:46:45.626Z,1010.75
2018-04-14T06:47:45.625Z,1010.75
2018-04-14T06:48:45.622Z,1010.73
2018-04-14T06:49:45.617Z,1010.77
2018-04-14T06:50:45.616Z,1010.76
2018-04-14T06:51:45.614Z,1010.80
2018-04-14T06:52:45.610Z,1010.75
2018-04-14T06:53:45.613Z,1010.72
2018-04-14T06:54:45.608Z,1010.74
2018-04-14T06:55:45.603Z,1010.87
2018-04-14T06:56:45.604Z,1010.82
2018-04-14T06:57:45.600Z,1010.85
2018-04-14T06:58:45.599Z,1010.80
2018-04-14T06:59:45.600Z,1010.89
2018-04-14T07:00:45.597Z,1010.90
2018-04-14T07:01:45.592Z,1010.88
2018-04-14T07:02:45.597Z,1010.94
2018-04-14T07:03:45.589Z,1010.97
2018-04-14T07:04:45.588Z,1010.91
2018-04-14T07:05:45.587Z,1011.00
2018-04-14T07:06:45.586Z,1011.06
2018-04-14T07:07:45.582Z,1011.06
2018-04-14T07:08:45.580Z,1011.11
2018-04-14T07:09:45.579Z,1011.15
2018-04-14T07:10:45.574Z,1011.08
2018-04-14T07:11:45.573Z,1011.17
2018-04-14T07:12:45.572Z,1011.16
2018-04-14T07:13:45.573Z,1011.14
2018-04-14T07:14:45.573Z,1011.15
2018-04-14T07:15:45.571Z,1011.11
2018-04-14T07:16:45.565Z,1011.13
2018-04-14T07:17:45.566Z,1011.13
2018-04-14T07:18:45.568Z,1011.17
2018-04-14T07:19:45.563Z,1011.13
2018-04-14T07:20:45.638Z,1011.27
2018-04-14T07:21:45.560Z,1011.24
2018-04-14T07:22:45.561Z,1011.28
2018-04-14T07:23:45.557Z,1011.39
2018-04-14T07:24:45.554Z,1011.41
2018-04-14T07:25:45.556Z,1011.42
2018-04-14T07:26:45.612Z,1011.34
2018-04-14T07:27:45.557Z,1011.39
2018-04-14T07:28:45.551Z,1011.42
2018-04-14T07:29:45.555Z,1011.45
2018-04-14T07:30:45.550Z,1011.42
2018-04-14T07:31:45.548Z,1011.44
2018-04-14T07:32:45.549Z,1011.50
2018-04-14T07:33:45.547Z,1011.48
2018-04-14T07:34:45.547Z,1011.56
2018-04-14T07:35:45.545Z,1011.54
2018-04-14T07:36:45.555Z,1011.52
2018-04-14T07:37:45.554Z,1011.56
2018-04-14T07:38:45.546Z,1011.60
2018-04-14T07:39:45.546Z,1011.56
2018-04-14T07:40:45.547Z,1011.60
2018-04-14T07:41:45.540Z,1011.68
2018-04-14T07:42:45.543Z,1011.68
2018-04-14T07:43:45.544Z,1011.66
2018-04-14T07:44:45.543Z,1011.75
2018-04-14T07:45:45.542Z,1011.76
2018-04-14T07:46:45.545Z,1011.75
2018-04-14T07:47:45.542Z,1011.75
2018-04-14T07:48:45.541Z,1011.81
2018-04-14T07:49:45.543Z,1011.81
2018-04-14T07:50:45.541Z,1011.82
2018-04-14T07:51:45.541Z,1011.85
2018-04-14T07:52:45.543Z,1011.81
2018-04-14T07:53:45.545Z,1011.88
2018-04-14T07:54:45.541Z,1011.82
2018-04-14T07:55:45.540Z,1011.90
2018-04-14T07:56:45.538Z,1011.90
2018-04-14T07:57:45.561Z,1011.81
2018-04-14T07:58:45.541Z,1011.87
2018-04-14T07:59:45.539Z,1011.88
2018-04-14T08:00:45.538Z,1011.90
2018-04-14T08:01:45.540Z,1011.89
2018-04-14T08:02:45.538Z,1011.91
2018-04-14T08:03:45.537Z,1012.00
2018-04-14T08:04:45.537Z,1012.00
2018-04-14T08:05:45.537Z,1012.02
2018-04-14T08:06:45.538Z,1012.02
2018-04-14T08:07:45.536Z,1012.05
2018-04-14T08:08:45.536Z,1012.04
2018-04-14T08:09:45.536Z,1012.01
2018-04-14T08:10:45.530Z,1011.99
2018-04-14T08:11:45.534Z,1012.00
2018-04-14T08:12:45.537Z,1012.02
2018-04-14T08:13:45.535Z,1012.09
2018-04-14T08:14:45.538Z,1012.05
2018-04-14T08:15:45.537Z,1012.14
2018-04-14T08:16:45.542Z,1012.17
2018-04-14T08:17:45.536Z,1012.17
2018-04-14T08:18:45.536Z,1012.15
2018-04-14T08:19:45.535Z,1012.15
2018-04-14T08:20:45.541Z,1012.22
2018-04-14T08:21:45.537Z,1012.30
2018-04-14T08:22:45.536Z,1012.29
2018-04-14T08:23:45.537Z,1012.29
2018-04-14T08:24:45.551Z,1012.30
2018-04-14T08:25:45.544Z,1012.27
2018-04-14T08:26:45.534Z,1012.31
2018-04-14T08:27:45.536Z,1012.36
2018-04-14T08:28:45.540Z,1012.33
2018-04-14T08:29:45.537Z,1012.35
2018-04-14T08:30:45.538Z,1012.39
2018-04-14T08:31:45.543Z,1012.31
2018-04-14T08:32:45.536Z,1012.32
2018-04-14T08:33:45.569Z,1012.30
2018-04-14T08:34:45.541Z,1012.34
2018-04-14T08:35:45.544Z,1012.45
2018-04-14T08:36:46.192Z,1012.34
2018-04-14T08:37:45.544Z,1012.35
2018-04-14T08:38:45.542Z,1012.37
2018-04-14T08:39:45.544Z,1012.35
2018-04-14T08:40:45.539Z,1012.37
2018-04-14T08:41:45.543Z,1012.39
2018-04-14T08:42:45.544Z,1012.41
2018-04-14T08:43:45.541Z,1012.37
2018-04-14T08:44:45.541Z,1012.38
2018-04-14T08:45:45.547Z,1012.43
2018-04-14T08:46:45.548Z,1012.34
2018-04-14T08:47:45.547Z,1012.36
2018-04-14T08:48:45.594Z,1012.38
2018-04-14T08:49:45.546Z,1012.35
2018-04-14T08:50:45.547Z,1012.37
2018-04-14T08:51:45.548Z,1012.39
2018-04-14T08:52:45.551Z,1012.41
2018-04-14T08:53:45.548Z,1012.40
2018-04-14T08:54:45.556Z,1012.39
2018-04-14T08:55:45.551Z,1012.38
2018-04-14T08:56:45.551Z,1012.40
2018-04-14T08:57:45.549Z,1012.42
2018-04-14T08:58:45.557Z,1012.44
2018-04-14T08:59:45.548Z,1012.31
2018-04-14T09:00:45.555Z,1012.49
2018-04-14T09:01:45.551Z,1012.51
2018-04-14T09:02:45.553Z,1012.46
2018-04-14T09:03:45.553Z,1012.49
2018-04-14T09:04:45.556Z,1012.50
2018-04-14T09:05:45.551Z,1012.49
2018-04-14T09:06:45.553Z,1012.51
2018-04-14T09:07:45.554Z,1012.51
2018-04-14T09:08:45.553Z,1012.52
2018-04-14T09:09:45.560Z,1012.51
2018-04-14T09:10:45.557Z,1012.48
2018-04-14T09:11:45.555Z,1012.49
2018-04-14T09:12:45.554Z,1012.53
2018-04-14T09:13:45.555Z,1012.53
2018-04-14T09:14:45.559Z,1012.57
2018-04-14T09:15:45.554Z,1012.59
2018-04-14T09:16:45.556Z,1012.62
2018-04-14T09:17:45.561Z,1012.57
2018-04-14T09:18:45.559Z,1012.58
2018-04-14T09:19:45.557Z,1012.58
2018-04-14T09:20:45.558Z,1012.59
2018-04-14T09:21:45.560Z,1012.68
2018-04-14T09:22:45.557Z,1012.62
2018-04-14T09:23:45.557Z,1012.63
2018-04-14T09:24:45.561Z,1012.67
2018-04-14T09:25:45.559Z,1012.67
2018-04-14T09:26:45.617Z,1012.71
2018-04-14T09:27:45.561Z,1012.71
2018-04-14T09:28:45.565Z,1012.67
2018-04-14T09:29:45.563Z,1012.69
2018-04-14T09:30:45.565Z,1012.70
2018-04-14T09:31:45.586Z,1012.70
2018-04-14T09:32:45.564Z,1012.69
2018-04-14T09:33:45.569Z,1012.67
2018-04-14T09:34:45.567Z,1012.68
2018-04-14T09:35:45.570Z,1012.65
2018-04-14T09:36:45.571Z,1012.63
2018-04-14T09:37:45.575Z,1012.68
2018-04-14T09:38:45.568Z,1012.72
2018-04-14T09:39:45.572Z,1012.76
2018-04-14T09:40:45.579Z,1012.77
2018-04-14T09:41:45.573Z,1012.75
2018-04-14T09:42:45.571Z,1012.81
2018-04-14T09:43:45.573Z,1012.77
2018-04-14T09:44:45.573Z,1012.79
2018-04-14T09:45:45.578Z,1012.75
2018-04-14T09:46:45.578Z,1012.75
2018-04-14T09:47:45.588Z,1012.84
2018-04-14T09:48:45.578Z,1012.87
2018-04-14T09:49:45.579Z,1012.83
2018-04-14T09:50:45.585Z,1012.84
2018-04-14T09:51:45.582Z,1012.75
2018-04-14T09:52:45.583Z,1012.86
2018-04-14T09:53:45.582Z,1012.83
2018-04-14T09:54:45.585Z,1012.89
2018-04-14T09:55:45.583Z,1012.87
2018-04-14T09:56:45.584Z,1012.97
2018-04-14T09:57:45.583Z,1012.96
2018-04-14T09:58:45.593Z,1012.97
2018-04-14T09:59:45.593Z,1012.98
2018-04-14T10:00:45.588Z,1012.88
2018-04-14T10:01:45.591Z,1013.00
2018-04-14T10:02:45.590Z,1012.99
2018-04-14T10:03:45.595Z,1013.01
2018-04-14T10:04:45.592Z,1013.03
2018-04-14T10:05:45.595Z,1013.00
2018-04-14T10:06:45.592Z,1013.04
2018-04-14T10:07:45.594Z,1013.01
2018-04-14T10:08:45.598Z,1013.02
2018-04-14T10:09:45.597Z,1012.93
2018-04-14T10:10:45.602Z,1013.00
2018-04-14T10:11:45.600Z,1013.03
2018-04-14T10:12:45.599Z,1013.04
2018-04-14T10:13:45.600Z,1013.06
2018-04-14T10:14:45.602Z,1012.99
2018-04-14T10:15:45.609Z,1013.02
2018-04-14T10:16:45.605Z,1013.07
2018-04-14T10:17:45.610Z,1013.00
2018-04-14T10:18:45.610Z,1013.06
2018-04-14T10:19:45.608Z,1013.04
2018-04-14T10:20:45.608Z,1013.11
2018-04-14T10:21:45.609Z,1013.11
2018-04-14T10:22:45.609Z,1013.15
2018-04-14T10:23:45.615Z,1013.13
2018-04-14T10:24:45.608Z,1013.08
2018-04-14T10:25:45.611Z,1013.05
2018-04-14T10:26:45.613Z,1013.09
2018-04-14T10:27:45.615Z,1013.10
2018-04-14T10:28:45.615Z,1013.13
2018-04-14T10:29:45.621Z,1013.18
2018-04-14T10:30:45.616Z,1013.12
2018-04-14T10:31:45.617Z,1013.13
2018-04-14T10:32:45.618Z,1013.17
2018-04-14T10:33:45.617Z,1013.14
2018-04-14T10:34:45.620Z,1013.18
2018-04-14T10:35:45.619Z,1013.10
2018-04-14T10:36:45.624Z,1013.15
2018-04-14T10:37:45.670Z,1013.13
2018-04-14T10:38:45.659Z,1013.14
2018-04-14T10:39:45.622Z,1013.15
2018-04-14T10:40:45.656Z,1013.10
2018-04-14T10:41:45.625Z,1013.14
2018-04-14T10:42:45.629Z,1013.20
2018-04-14T10:43:45.628Z,1013.11
2018-04-14T10:44:45.629Z,1013.16
2018-04-14T10:45:45.632Z,1013.14
2018-04-14T10:46:45.635Z,1013.18
2018-04-14T10:47:45.636Z,1013.20
2018-04-14T10:48:45.632Z,1013.19
2018-04-14T10:49:45.635Z,1013.22
2018-04-14T10:50:45.636Z,1013.25
2018-04-14T10:51:45.636Z,1013.31
2018-04-14T10:52:45.640Z,1013.30
2018-04-14T10:53:45.646Z,1013.31
2018-04-14T10:54:45.680Z,1013.36
2018-04-14T10:55:45.677Z,1013.30
2018-04-14T10:56:45.642Z,1013.33
2018-04-14T10:57:45.647Z,1013.37
2018-04-14T10:58:45.645Z,1013.32
2018-04-14T10:59:45.642Z,1013.34
2018-04-14T11:00:45.644Z,1013.30
2018-04-14T11:01:45.647Z,1013.32
2018-04-14T11:02:45.657Z,1013.36
2018-04-14T11:03:45.653Z,1013.36
2018-04-14T11:04:45.654Z,1013.34
2018-04-14T11:05:45.651Z,1013.37
2018-04-14T11:06:45.652Z,1013.32
2018-04-14T11:07:45.657Z,1013.38
2018-04-14T11:08:45.654Z,1013.37
2018-04-14T11:09:45.653Z,1013.33
2018-04-14T11:10:45.660Z,1013.33
2018-04-14T11:11:45.659Z,1013.31
2018-04-14T11:12:45.666Z,1013.32
2018-04-14T11:13:45.664Z,1013.26
2018-04-14T11:14:45.662Z,1013.30
2018-04-14T11:15:45.672Z,1013.32
2018-04-14T11:16:45.664Z,1013.30
2018-04-14T11:17:45.670Z,1013.32
2018-04-14T11:18:45.675Z,1013.31
2018-04-14T11:19:45.668Z,1013.30
2018-04-14T11:20:45.672Z,1013.34
2018-04-14T11:21:45.670Z,1013.23
2018-04-14T11:22:45.676Z,1013.30
2018-04-14T11:23:45.676Z,1013.31
2018-04-14T11:24:45.676Z,1013.35
2018-04-14T11:25:45.675Z,1013.34
2018-04-14T11:26:45.677Z,1013.35
2018-04-14T11:27:45.680Z,1013.34
2018-04-14T11:28:45.685Z,1013.37
2018-04-14T11:29:45.686Z,1013.31
2018-04-14T11:30:45.683Z,1013.34
2018-04-14T11:31:45.688Z,1013.33
2018-04-14T11:32:45.687Z,1013.37
2018-04-14T11:33:45.687Z,1013.40
2018-04-14T11:34:45.688Z,1013.39
2018-04-14T11:35:45.691Z,1013.36
2018-04-14T11:36:45.687Z,1013.29
2018-04-14T11:37:45.692Z,1013.30
2018-04-14T11:38:45.697Z,1013.27
2018-04-14T11:39:45.694Z,1013.25
2018-04-14T11:40:45.696Z,1013.27
2018-04-14T11:41:45.696Z,1013.29
2018-04-14T11:42:45.703Z,1013.29
2018-04-14T11:43:45.703Z,1013.29
2018-04-14T11:44:45.700Z,1013.31
2018-04-14T11:45:45.703Z,1013.30
2018-04-14T11:46:45.708Z,1013.31
2018-04-14T11:47:45.707Z,1013.29
2018-04-14T11:48:45.707Z,1013.37
2018-04-14T11:49:45.714Z,1013.33
2018-04-14T11:50:45.713Z,1013.32
2018-04-14T11:51:45.714Z,1013.35
2018-04-14T11:52:45.714Z,1013.33
2018-04-14T11:53:45.722Z,1013.39
2018-04-14T11:54:45.719Z,1013.33
2018-04-14T11:55:45.727Z,1013.35
2018-04-14T11:56:45.725Z,1013.36
2018-04-14T11:57:45.723Z,1013.33
2018-04-14T11:58:45.726Z,1013.35
2018-04-14T11:59:45.729Z,1013.33
2018-04-14T12:00:45.729Z,1013.32
2018-04-14T12:01:45.736Z,1013.34
2018-04-14T12:02:45.734Z,1013.35
2018-04-14T12:03:45.799Z,1013.39
2018-04-14T12:04:45.741Z,1013.38
2018-04-14T12:05:45.741Z,1013.40